sensor_id;sensor_type;location;lat;lon;timestamp;temperature;humidity
40023;DHT22;25713;-35.352;149.036;2022-10-29T00:01:45;13.00;95.00
40023;DHT22;25713;-35.352;149.036;2022-10-29T00:04:14;13.10;94.50
40023;DHT22;25713;-35.352;149.036;2022-10-29T00:06:43;13.10;93.80
40023;DHT22;25713;-35.352;149.036;2022-10-29T00:09:13;13.10;94.20
40023;DHT22;25713;-35.352;149.036;2022-10-29T00:11:42;13.10;94.30
40023;DHT22;25713;-35.352;149.036;2022-10-29T00:14:14;13.10;93.60
40023;DHT22;25713;-35.352;149.036;2022-10-29T00:16:43;13.10;94.10
40023;DHT22;25713;-35.352;149.036;2022-10-29T00:19:12;13.10;93.70
40023;DHT22;25713;-35.352;149.036;2022-10-29T00:21:41;13.10;93.90
40023;DHT22;25713;-35.352;149.036;2022-10-29T00:24:11;13.10;94.80
40023;DHT22;25713;-35.352;149.036;2022-10-29T00:26:40;13.10;93.50
40023;DHT22;25713;-35.352;149.036;2022-10-29T00:29:09;13.10;94.30
40023;DHT22;25713;-35.352;149.036;2022-10-29T00:31:40;13.20;94.10
40023;DHT22;25713;-35.352;149.036;2022-10-29T00:34:10;13.20;93.20
40023;DHT22;25713;-35.352;149.036;2022-10-29T00:36:39;13.20;92.90
40023;DHT22;25713;-35.352;149.036;2022-10-29T00:39:13;13.10;93.30
40023;DHT22;25713;-35.352;149.036;2022-10-29T00:41:43;13.10;93.40
40023;DHT22;25713;-35.352;149.036;2022-10-29T00:44:38;13.20;93.80
40023;DHT22;25713;-35.352;149.036;2022-10-29T00:47:18;13.30;90.60
40023;DHT22;25713;-35.352;149.036;2022-10-29T00:49:52;13.40;88.70
40023;DHT22;25713;-35.352;149.036;2022-10-29T00:52:23;13.50;86.00
40023;DHT22;25713;-35.352;149.036;2022-10-29T00:54:55;13.60;87.30
40023;DHT22;25713;-35.352;149.036;2022-10-29T00:57:28;13.70;86.20
40023;DHT22;25713;-35.352;149.036;2022-10-29T00:59:59;13.70;86.80
40023;DHT22;25713;-35.352;149.036;2022-10-29T01:02:32;13.70;86.80
40023;DHT22;25713;-35.352;149.036;2022-10-29T01:05:04;13.70;86.10
40023;DHT22;25713;-35.352;149.036;2022-10-29T01:07:34;13.70;84.00
40023;DHT22;25713;-35.352;149.036;2022-10-29T01:10:04;13.70;84.10
40023;DHT22;25713;-35.352;149.036;2022-10-29T01:15:28;13.80;85.80
40023;DHT22;25713;-35.352;149.036;2022-10-29T01:18:11;13.80;89.20
40023;DHT22;25713;-35.352;149.036;2022-10-29T01:24:26;13.70;86.50
40023;DHT22;25713;-35.352;149.036;2022-10-29T01:30:12;13.70;83.60
40023;DHT22;25713;-35.352;149.036;2022-10-29T01:32:57;13.70;83.70
40023;DHT22;25713;-35.352;149.036;2022-10-29T01:35:35;13.70;84.70
40023;DHT22;25713;-35.352;149.036;2022-10-29T01:38:16;13.70;83.80
40023;DHT22;25713;-35.352;149.036;2022-10-29T01:40:51;13.70;83.30
40023;DHT22;25713;-35.352;149.036;2022-10-29T01:43:27;13.50;83.00
40023;DHT22;25713;-35.352;149.036;2022-10-29T01:46:04;13.50;85.40
40023;DHT22;25713;-35.352;149.036;2022-10-29T01:48:38;13.50;84.20
40023;DHT22;25713;-35.352;149.036;2022-10-29T01:51:13;13.50;82.30
40023;DHT22;25713;-35.352;149.036;2022-10-29T01:53:45;13.50;82.70
40023;DHT22;25713;-35.352;149.036;2022-10-29T01:56:15;13.60;83.40
40023;DHT22;25713;-35.352;149.036;2022-10-29T01:58:46;13.60;82.50
40023;DHT22;25713;-35.352;149.036;2022-10-29T02:04:25;13.70;83.00
40023;DHT22;25713;-35.352;149.036;2022-10-29T02:07:03;13.80;83.70
40023;DHT22;25713;-35.352;149.036;2022-10-29T02:09:42;13.80;84.30
40023;DHT22;25713;-35.352;149.036;2022-10-29T02:12:19;13.90;83.80
40023;DHT22;25713;-35.352;149.036;2022-10-29T02:14:53;13.80;81.60
40023;DHT22;25713;-35.352;149.036;2022-10-29T02:17:24;13.80;83.10
40023;DHT22;25713;-35.352;149.036;2022-10-29T02:19:56;13.80;82.60
40023;DHT22;25713;-35.352;149.036;2022-10-29T02:22:25;13.80;84.40
40023;DHT22;25713;-35.352;149.036;2022-10-29T02:24:55;13.90;84.20
40023;DHT22;25713;-35.352;149.036;2022-10-29T02:27:24;14.00;84.20
40023;DHT22;25713;-35.352;149.036;2022-10-29T02:29:54;14.00;81.00
40023;DHT22;25713;-35.352;149.036;2022-10-29T02:32:23;13.90;81.40
40023;DHT22;25713;-35.352;149.036;2022-10-29T02:34:54;13.90;81.00
40023;DHT22;25713;-35.352;149.036;2022-10-29T02:37:24;13.90;81.80
40023;DHT22;25713;-35.352;149.036;2022-10-29T02:39:53;14.00;81.30
40023;DHT22;25713;-35.352;149.036;2022-10-29T02:42:22;13.90;81.30
40023;DHT22;25713;-35.352;149.036;2022-10-29T02:44:52;14.10;84.80
40023;DHT22;25713;-35.352;149.036;2022-10-29T02:47:21;14.20;83.10
40023;DHT22;25713;-35.352;149.036;2022-10-29T02:49:50;14.20;82.00
40023;DHT22;25713;-35.352;149.036;2022-10-29T02:52:22;14.20;82.60
40023;DHT22;25713;-35.352;149.036;2022-10-29T02:54:51;14.20;83.10
40023;DHT22;25713;-35.352;149.036;2022-10-29T02:57:20;14.20;82.30
40023;DHT22;25713;-35.352;149.036;2022-10-29T02:59:50;14.30;76.70
40023;DHT22;25713;-35.352;149.036;2022-10-29T03:02:19;14.20;80.50
40023;DHT22;25713;-35.352;149.036;2022-10-29T03:04:48;14.30;80.80
40023;DHT22;25713;-35.352;149.036;2022-10-29T03:07:20;14.30;80.70
40023;DHT22;25713;-35.352;149.036;2022-10-29T03:09:49;14.30;83.40
40023;DHT22;25713;-35.352;149.036;2022-10-29T03:12:19;14.40;80.20
40023;DHT22;25713;-35.352;149.036;2022-10-29T03:14:48;14.40;81.20
40023;DHT22;25713;-35.352;149.036;2022-10-29T03:17:17;14.50;81.40
40023;DHT22;25713;-35.352;149.036;2022-10-29T03:19:47;14.40;81.00
40023;DHT22;25713;-35.352;149.036;2022-10-29T03:22:16;14.40;82.30
40023;DHT22;25713;-35.352;149.036;2022-10-29T03:24:47;14.50;82.00
40023;DHT22;25713;-35.352;149.036;2022-10-29T03:27:17;14.50;80.30
40023;DHT22;25713;-35.352;149.036;2022-10-29T03:29:46;14.50;79.10
40023;DHT22;25713;-35.352;149.036;2022-10-29T03:32:15;14.50;80.60
40023;DHT22;25713;-35.352;149.036;2022-10-29T03:34:45;14.70;79.80
40023;DHT22;25713;-35.352;149.036;2022-10-29T03:37:14;14.60;82.30
40023;DHT22;25713;-35.352;149.036;2022-10-29T03:39:45;14.70;80.50
40023;DHT22;25713;-35.352;149.036;2022-10-29T03:42:15;14.70;80.20
40023;DHT22;25713;-35.352;149.036;2022-10-29T03:44:44;14.70;79.50
40023;DHT22;25713;-35.352;149.036;2022-10-29T03:47:13;14.70;80.10
40023;DHT22;25713;-35.352;149.036;2022-10-29T03:49:43;14.70;80.10
40023;DHT22;25713;-35.352;149.036;2022-10-29T03:52:12;14.80;80.30
40023;DHT22;25713;-35.352;149.036;2022-10-29T03:54:41;14.80;77.80
40023;DHT22;25713;-35.352;149.036;2022-10-29T03:57:13;14.70;78.40
40023;DHT22;25713;-35.352;149.036;2022-10-29T03:59:43;14.60;80.50
40023;DHT22;25713;-35.352;149.036;2022-10-29T04:02:12;14.60;77.90
40023;DHT22;25713;-35.352;149.036;2022-10-29T04:04:41;14.70;81.80
40023;DHT22;25713;-35.352;149.036;2022-10-29T04:07:11;14.70;80.00
40023;DHT22;25713;-35.352;149.036;2022-10-29T04:09:41;14.80;78.70
40023;DHT22;25713;-35.352;149.036;2022-10-29T04:12:12;14.80;79.60
40023;DHT22;25713;-35.352;149.036;2022-10-29T04:14:41;14.80;78.20
40023;DHT22;25713;-35.352;149.036;2022-10-29T04:17:11;15.00;79.70
40023;DHT22;25713;-35.352;149.036;2022-10-29T04:19:41;14.90;79.60
40023;DHT22;25713;-35.352;149.036;2022-10-29T04:22:10;14.90;76.60
40023;DHT22;25713;-35.352;149.036;2022-10-29T04:24:40;14.80;80.40
40023;DHT22;25713;-35.352;149.036;2022-10-29T04:27:09;14.80;79.70
40023;DHT22;25713;-35.352;149.036;2022-10-29T04:29:40;14.90;76.50
40023;DHT22;25713;-35.352;149.036;2022-10-29T04:32:10;14.90;78.00
40023;DHT22;25713;-35.352;149.036;2022-10-29T04:34:39;15.00;78.90
40023;DHT22;25713;-35.352;149.036;2022-10-29T04:37:08;15.00;77.90
40023;DHT22;25713;-35.352;149.036;2022-10-29T04:39:37;15.00;79.20
40023;DHT22;25713;-35.352;149.036;2022-10-29T04:42:07;15.00;79.10
40023;DHT22;25713;-35.352;149.036;2022-10-29T04:44:39;15.10;78.30
40023;DHT22;25713;-35.352;149.036;2022-10-29T04:47:09;15.00;76.60
40023;DHT22;25713;-35.352;149.036;2022-10-29T04:49:38;15.00;76.90
40023;DHT22;25713;-35.352;149.036;2022-10-29T04:52:07;15.10;80.90
40023;DHT22;25713;-35.352;149.036;2022-10-29T04:54:37;15.00;79.80
40023;DHT22;25713;-35.352;149.036;2022-10-29T04:57:06;15.10;78.20
40023;DHT22;25713;-35.352;149.036;2022-10-29T04:59:35;15.00;77.50
40023;DHT22;25713;-35.352;149.036;2022-10-29T05:02:07;15.00;78.70
40023;DHT22;25713;-35.352;149.036;2022-10-29T05:04:37;15.10;79.10
40023;DHT22;25713;-35.352;149.036;2022-10-29T05:07:07;15.10;79.70
40023;DHT22;25713;-35.352;149.036;2022-10-29T05:09:36;15.10;79.50
40023;DHT22;25713;-35.352;149.036;2022-10-29T05:12:07;15.10;78.60
40023;DHT22;25713;-35.352;149.036;2022-10-29T05:14:36;15.10;77.50
40023;DHT22;25713;-35.352;149.036;2022-10-29T05:17:08;15.10;76.50
40023;DHT22;25713;-35.352;149.036;2022-10-29T05:19:37;15.00;76.90
40023;DHT22;25713;-35.352;149.036;2022-10-29T05:22:06;15.00;78.70
40023;DHT22;25713;-35.352;149.036;2022-10-29T05:24:36;15.00;75.40
40023;DHT22;25713;-35.352;149.036;2022-10-29T05:27:06;15.00;77.40
40023;DHT22;25713;-35.352;149.036;2022-10-29T05:29:35;15.00;77.30
40023;DHT22;25713;-35.352;149.036;2022-10-29T05:32:07;14.90;79.00
40023;DHT22;25713;-35.352;149.036;2022-10-29T05:34:36;14.90;79.70
40023;DHT22;25713;-35.352;149.036;2022-10-29T05:37:05;14.90;78.20
40023;DHT22;25713;-35.352;149.036;2022-10-29T05:39:35;14.90;78.60
40023;DHT22;25713;-35.352;149.036;2022-10-29T05:42:05;14.90;78.70
40023;DHT22;25713;-35.352;149.036;2022-10-29T05:44:34;14.90;77.70
40023;DHT22;25713;-35.352;149.036;2022-10-29T05:47:07;14.90;79.10
40023;DHT22;25713;-35.352;149.036;2022-10-29T05:49:36;15.00;75.10
40023;DHT22;25713;-35.352;149.036;2022-10-29T05:52:05;15.00;73.00
40023;DHT22;25713;-35.352;149.036;2022-10-29T05:54:35;15.00;76.50
40023;DHT22;25713;-35.352;149.036;2022-10-29T05:57:04;14.90;77.80
40023;DHT22;25713;-35.352;149.036;2022-10-29T05:59:34;15.00;76.00
40023;DHT22;25713;-35.352;149.036;2022-10-29T06:02:03;14.90;77.50
40023;DHT22;25713;-35.352;149.036;2022-10-29T06:04:36;14.90;75.80
40023;DHT22;25713;-35.352;149.036;2022-10-29T06:07:05;14.90;77.00
40023;DHT22;25713;-35.352;149.036;2022-10-29T06:09:35;14.90;75.60
40023;DHT22;25713;-35.352;149.036;2022-10-29T06:12:05;14.90;74.50
40023;DHT22;25713;-35.352;149.036;2022-10-29T06:14:34;14.90;74.40
40023;DHT22;25713;-35.352;149.036;2022-10-29T06:17:04;14.80;76.90
40023;DHT22;25713;-35.352;149.036;2022-10-29T06:19:35;14.70;76.60
40023;DHT22;25713;-35.352;149.036;2022-10-29T06:22:05;14.70;76.80
40023;DHT22;25713;-35.352;149.036;2022-10-29T06:24:34;14.70;77.00
40023;DHT22;25713;-35.352;149.036;2022-10-29T06:27:04;14.60;74.90
40023;DHT22;25713;-35.352;149.036;2022-10-29T06:29:33;14.60;75.40
40023;DHT22;25713;-35.352;149.036;2022-10-29T06:32:03;14.60;75.00
40023;DHT22;25713;-35.352;149.036;2022-10-29T06:34:34;14.60;76.00
40023;DHT22;25713;-35.352;149.036;2022-10-29T06:37:03;14.50;76.30
40023;DHT22;25713;-35.352;149.036;2022-10-29T06:39:33;14.50;75.90
40023;DHT22;25713;-35.352;149.036;2022-10-29T06:42:02;14.60;74.50
40023;DHT22;25713;-35.352;149.036;2022-10-29T06:44:32;14.60;75.60
40023;DHT22;25713;-35.352;149.036;2022-10-29T06:47:01;14.60;77.70
40023;DHT22;25713;-35.352;149.036;2022-10-29T06:49:30;14.60;78.40
40023;DHT22;25713;-35.352;149.036;2022-10-29T06:52:02;14.60;77.50
40023;DHT22;25713;-35.352;149.036;2022-10-29T06:54:31;14.50;78.10
40023;DHT22;25713;-35.352;149.036;2022-10-29T06:57:00;14.50;77.20
40023;DHT22;25713;-35.352;149.036;2022-10-29T06:59:29;14.40;74.10
40023;DHT22;25713;-35.352;149.036;2022-10-29T07:01:59;14.30;76.50
40023;DHT22;25713;-35.352;149.036;2022-10-29T07:04:28;14.30;76.70
40023;DHT22;25713;-35.352;149.036;2022-10-29T07:06:59;14.30;76.30
40023;DHT22;25713;-35.352;149.036;2022-10-29T07:09:29;14.30;76.80
40023;DHT22;25713;-35.352;149.036;2022-10-29T07:11:58;14.30;77.70
40023;DHT22;25713;-35.352;149.036;2022-10-29T07:14:28;14.30;76.70
40023;DHT22;25713;-35.352;149.036;2022-10-29T07:16:57;14.30;76.30
40023;DHT22;25713;-35.352;149.036;2022-10-29T07:19:26;14.30;77.60
40023;DHT22;25713;-35.352;149.036;2022-10-29T07:21:55;14.30;77.10
40023;DHT22;25713;-35.352;149.036;2022-10-29T07:24:27;14.30;77.70
40023;DHT22;25713;-35.352;149.036;2022-10-29T07:26:57;14.30;78.00
40023;DHT22;25713;-35.352;149.036;2022-10-29T07:29:26;14.30;77.70
40023;DHT22;25713;-35.352;149.036;2022-10-29T07:31:55;14.30;77.40
40023;DHT22;25713;-35.352;149.036;2022-10-29T07:34:24;14.30;77.30
40023;DHT22;25713;-35.352;149.036;2022-10-29T07:36:54;14.30;80.30
40023;DHT22;25713;-35.352;149.036;2022-10-29T07:39:23;14.30;80.10
40023;DHT22;25713;-35.352;149.036;2022-10-29T07:41:54;14.30;79.40
40023;DHT22;25713;-35.352;149.036;2022-10-29T07:44:24;14.40;78.10
40023;DHT22;25713;-35.352;149.036;2022-10-29T07:46:56;14.30;80.20
40023;DHT22;25713;-35.352;149.036;2022-10-29T07:49:25;14.30;78.70
40023;DHT22;25713;-35.352;149.036;2022-10-29T07:51:55;14.30;77.70
40023;DHT22;25713;-35.352;149.036;2022-10-29T07:54:24;14.20;79.10
40023;DHT22;25713;-35.352;149.036;2022-10-29T07:56:55;14.20;79.70
40023;DHT22;25713;-35.352;149.036;2022-10-29T07:59:24;14.20;81.20
40023;DHT22;25713;-35.352;149.036;2022-10-29T08:01:54;14.20;79.00
40023;DHT22;25713;-35.352;149.036;2022-10-29T08:04:23;14.20;79.90
40023;DHT22;25713;-35.352;149.036;2022-10-29T08:06:53;14.20;79.90
40023;DHT22;25713;-35.352;149.036;2022-10-29T08:09:22;14.20;82.30
40023;DHT22;25713;-35.352;149.036;2022-10-29T08:11:53;14.20;81.50
40023;DHT22;25713;-35.352;149.036;2022-10-29T08:14:23;14.20;81.50
40023;DHT22;25713;-35.352;149.036;2022-10-29T08:16:54;14.10;81.70
40023;DHT22;25713;-35.352;149.036;2022-10-29T08:19:23;14.00;81.40
40023;DHT22;25713;-35.352;149.036;2022-10-29T08:21:52;14.00;80.40
40023;DHT22;25713;-35.352;149.036;2022-10-29T08:24:22;14.00;81.60
40023;DHT22;25713;-35.352;149.036;2022-10-29T08:26:55;14.00;81.80
40023;DHT22;25713;-35.352;149.036;2022-10-29T08:29:24;13.90;80.60
40023;DHT22;25713;-35.352;149.036;2022-10-29T08:31:54;13.90;82.50
40023;DHT22;25713;-35.352;149.036;2022-10-29T08:34:23;13.90;80.10
40023;DHT22;25713;-35.352;149.036;2022-10-29T08:36:52;13.80;80.60
40023;DHT22;25713;-35.352;149.036;2022-10-29T08:39:22;13.80;80.60
40023;DHT22;25713;-35.352;149.036;2022-10-29T08:42:00;13.80;82.20
40023;DHT22;25713;-35.352;149.036;2022-10-29T08:44:49;13.80;82.20
40023;DHT22;25713;-35.352;149.036;2022-10-29T08:47:21;13.90;83.70
40023;DHT22;25713;-35.352;149.036;2022-10-29T08:50:04;13.90;83.90
40023;DHT22;25713;-35.352;149.036;2022-10-29T08:52:38;14.00;82.60
40023;DHT22;25713;-35.352;149.036;2022-10-29T08:55:13;13.90;81.90
40023;DHT22;25713;-35.352;149.036;2022-10-29T08:57:48;13.90;81.30
40023;DHT22;25713;-35.352;149.036;2022-10-29T09:00:20;13.90;80.50
40023;DHT22;25713;-35.352;149.036;2022-10-29T09:02:53;13.90;83.40
40023;DHT22;25713;-35.352;149.036;2022-10-29T09:05:26;13.90;81.80
40023;DHT22;25713;-35.352;149.036;2022-10-29T09:08:11;13.80;82.50
40023;DHT22;25713;-35.352;149.036;2022-10-29T09:10:46;13.80;82.00
40023;DHT22;25713;-35.352;149.036;2022-10-29T09:13:44;13.90;82.10
40023;DHT22;25713;-35.352;149.036;2022-10-29T09:16:24;13.80;82.10
40023;DHT22;25713;-35.352;149.036;2022-10-29T09:22:16;13.80;82.20
40023;DHT22;25713;-35.352;149.036;2022-10-29T09:24:52;13.90;82.40
40023;DHT22;25713;-35.352;149.036;2022-10-29T09:27:29;13.80;82.50
40023;DHT22;25713;-35.352;149.036;2022-10-29T09:30:13;13.80;85.10
40023;DHT22;25713;-35.352;149.036;2022-10-29T09:32:45;13.80;83.90
40023;DHT22;25713;-35.352;149.036;2022-10-29T09:35:19;13.90;82.10
40023;DHT22;25713;-35.352;149.036;2022-10-29T09:37:51;13.90;83.90
40023;DHT22;25713;-35.352;149.036;2022-10-29T09:40:30;13.80;83.80
40023;DHT22;25713;-35.352;149.036;2022-10-29T09:43:02;13.80;83.00
40023;DHT22;25713;-35.352;149.036;2022-10-29T09:45:48;13.80;83.80
40023;DHT22;25713;-35.352;149.036;2022-10-29T09:48:23;13.90;85.30
40023;DHT22;25713;-35.352;149.036;2022-10-29T09:51:00;13.90;84.60
40023;DHT22;25713;-35.352;149.036;2022-10-29T09:53:30;14.00;85.20
40023;DHT22;25713;-35.352;149.036;2022-10-29T09:55:59;14.00;84.70
40023;DHT22;25713;-35.352;149.036;2022-10-29T09:58:29;14.00;85.40
40023;DHT22;25713;-35.352;149.036;2022-10-29T10:01:01;14.00;84.30
40023;DHT22;25713;-35.352;149.036;2022-10-29T10:03:35;14.00;83.70
40023;DHT22;25713;-35.352;149.036;2022-10-29T10:06:07;14.00;84.70
40023;DHT22;25713;-35.352;149.036;2022-10-29T10:08:59;14.00;85.10
40023;DHT22;25713;-35.352;149.036;2022-10-29T10:11:35;14.00;85.90
40023;DHT22;25713;-35.352;149.036;2022-10-29T10:14:13;14.10;85.70
40023;DHT22;25713;-35.352;149.036;2022-10-29T10:16:46;14.10;85.90
40023;DHT22;25713;-35.352;149.036;2022-10-29T10:19:25;14.10;85.20
40023;DHT22;25713;-35.352;149.036;2022-10-29T10:21:58;14.10;86.20
40023;DHT22;25713;-35.352;149.036;2022-10-29T10:24:30;14.10;85.20
40023;DHT22;25713;-35.352;149.036;2022-10-29T10:27:00;14.10;86.30
40023;DHT22;25713;-35.352;149.036;2022-10-29T10:29:29;14.10;85.10
40023;DHT22;25713;-35.352;149.036;2022-10-29T10:32:15;14.10;85.30
40023;DHT22;25713;-35.352;149.036;2022-10-29T10:34:45;14.10;86.30
40023;DHT22;25713;-35.352;149.036;2022-10-29T10:37:17;14.10;86.60
40023;DHT22;25713;-35.352;149.036;2022-10-29T10:39:48;14.10;84.50
40023;DHT22;25713;-35.352;149.036;2022-10-29T10:42:21;14.10;85.20
40023;DHT22;25713;-35.352;149.036;2022-10-29T10:44:51;14.10;85.80
40023;DHT22;25713;-35.352;149.036;2022-10-29T10:47:25;14.10;85.70
40023;DHT22;25713;-35.352;149.036;2022-10-29T10:50:10;14.10;85.30
40023;DHT22;25713;-35.352;149.036;2022-10-29T10:52:41;14.10;85.20
40023;DHT22;25713;-35.352;149.036;2022-10-29T10:55:18;14.10;86.60
40023;DHT22;25713;-35.352;149.036;2022-10-29T10:57:50;14.10;86.80
40023;DHT22;25713;-35.352;149.036;2022-10-29T11:00:23;14.10;86.80
40023;DHT22;25713;-35.352;149.036;2022-10-29T11:02:56;14.10;85.70
40023;DHT22;25713;-35.352;149.036;2022-10-29T11:05:30;14.00;84.80
40023;DHT22;25713;-35.352;149.036;2022-10-29T11:08:05;14.00;85.70
40023;DHT22;25713;-35.352;149.036;2022-10-29T11:10:39;14.00;86.50
40023;DHT22;25713;-35.352;149.036;2022-10-29T11:13:14;14.00;87.50
40023;DHT22;25713;-35.352;149.036;2022-10-29T11:15:51;14.00;86.70
40023;DHT22;25713;-35.352;149.036;2022-10-29T11:18:28;14.00;86.10
40023;DHT22;25713;-35.352;149.036;2022-10-29T11:21:05;13.90;84.70
40023;DHT22;25713;-35.352;149.036;2022-10-29T11:23:42;13.90;84.70
40023;DHT22;25713;-35.352;149.036;2022-10-29T11:26:16;13.80;86.80
40023;DHT22;25713;-35.352;149.036;2022-10-29T11:28:50;13.80;86.10
40023;DHT22;25713;-35.352;149.036;2022-10-29T11:31:25;13.80;86.60
40023;DHT22;25713;-35.352;149.036;2022-10-29T11:34:04;13.80;87.40
40023;DHT22;25713;-35.352;149.036;2022-10-29T11:36:39;13.80;87.20
40023;DHT22;25713;-35.352;149.036;2022-10-29T11:39:16;13.70;86.60
40023;DHT22;25713;-35.352;149.036;2022-10-29T11:41:51;13.70;87.60
40023;DHT22;25713;-35.352;149.036;2022-10-29T11:44:23;13.60;86.80
40023;DHT22;25713;-35.352;149.036;2022-10-29T11:47:07;13.60;88.20
40023;DHT22;25713;-35.352;149.036;2022-10-29T11:49:53;13.30;81.00
40023;DHT22;25713;-35.352;149.036;2022-10-29T11:52:32;13.30;88.90
40023;DHT22;25713;-35.352;149.036;2022-10-29T11:55:22;13.40;87.20
40023;DHT22;25713;-35.352;149.036;2022-10-29T11:57:57;13.40;88.20
40023;DHT22;25713;-35.352;149.036;2022-10-29T12:00:29;13.40;84.20
40023;DHT22;25713;-35.352;149.036;2022-10-29T12:03:14;13.40;86.90
40023;DHT22;25713;-35.352;149.036;2022-10-29T12:05:59;13.40;87.40
40023;DHT22;25713;-35.352;149.036;2022-10-29T12:08:41;13.50;88.00
40023;DHT22;25713;-35.352;149.036;2022-10-29T12:11:20;13.50;87.80
40023;DHT22;25713;-35.352;149.036;2022-10-29T12:13:59;13.60;88.00
40023;DHT22;25713;-35.352;149.036;2022-10-29T12:16:38;13.60;87.20
40023;DHT22;25713;-35.352;149.036;2022-10-29T12:19:19;13.60;87.20
40023;DHT22;25713;-35.352;149.036;2022-10-29T12:21:55;13.70;87.20
40023;DHT22;25713;-35.352;149.036;2022-10-29T12:24:41;13.70;86.90
40023;DHT22;25713;-35.352;149.036;2022-10-29T12:27:18;13.70;86.30
40023;DHT22;25713;-35.352;149.036;2022-10-29T12:29:55;13.60;88.20
40023;DHT22;25713;-35.352;149.036;2022-10-29T12:32:29;13.70;86.10
40023;DHT22;25713;-35.352;149.036;2022-10-29T12:35:01;13.70;88.40
40023;DHT22;25713;-35.352;149.036;2022-10-29T12:37:42;13.70;86.70
40023;DHT22;25713;-35.352;149.036;2022-10-29T12:40:17;13.80;87.80
40023;DHT22;25713;-35.352;149.036;2022-10-29T12:42:48;13.80;85.60
40023;DHT22;25713;-35.352;149.036;2022-10-29T12:45:29;13.80;86.20
40023;DHT22;25713;-35.352;149.036;2022-10-29T12:48:07;13.80;87.00
40023;DHT22;25713;-35.352;149.036;2022-10-29T12:50:45;13.80;87.00
40023;DHT22;25713;-35.352;149.036;2022-10-29T12:53:27;13.80;86.60
40023;DHT22;25713;-35.352;149.036;2022-10-29T12:55:59;13.80;84.90
40023;DHT22;25713;-35.352;149.036;2022-10-29T12:58:46;13.80;87.30
40023;DHT22;25713;-35.352;149.036;2022-10-29T13:01:44;13.80;85.80
40023;DHT22;25713;-35.352;149.036;2022-10-29T13:04:25;13.80;85.20
40023;DHT22;25713;-35.352;149.036;2022-10-29T13:07:01;13.80;85.00
40023;DHT22;25713;-35.352;149.036;2022-10-29T13:09:34;13.80;85.40
40023;DHT22;25713;-35.352;149.036;2022-10-29T13:12:06;13.80;85.90
40023;DHT22;25713;-35.352;149.036;2022-10-29T13:14:40;13.80;86.20
40023;DHT22;25713;-35.352;149.036;2022-10-29T13:17:25;13.70;87.40
40023;DHT22;25713;-35.352;149.036;2022-10-29T13:19:58;13.70;86.60
40023;DHT22;25713;-35.352;149.036;2022-10-29T13:22:51;13.70;86.00
40023;DHT22;25713;-35.352;149.036;2022-10-29T13:25:41;13.70;86.70
40023;DHT22;25713;-35.352;149.036;2022-10-29T13:28:45;13.70;89.00
40023;DHT22;25713;-35.352;149.036;2022-10-29T13:31:43;13.70;87.20
40023;DHT22;25713;-35.352;149.036;2022-10-29T13:37:36;13.60;87.90
40023;DHT22;25713;-35.352;149.036;2022-10-29T13:43:25;13.70;87.30
40023;DHT22;25713;-35.352;149.036;2022-10-29T13:46:17;13.70;90.10
40023;DHT22;25713;-35.352;149.036;2022-10-29T13:48:50;13.70;88.40
40023;DHT22;25713;-35.352;149.036;2022-10-29T13:51:30;13.70;87.20
40023;DHT22;25713;-35.352;149.036;2022-10-29T13:54:04;13.70;89.80
40023;DHT22;25713;-35.352;149.036;2022-10-29T13:56:38;13.70;89.10
40023;DHT22;25713;-35.352;149.036;2022-10-29T13:59:16;13.70;88.60
40023;DHT22;25713;-35.352;149.036;2022-10-29T14:02:01;13.70;87.50
40023;DHT22;25713;-35.352;149.036;2022-10-29T14:04:37;13.70;87.30
40023;DHT22;25713;-35.352;149.036;2022-10-29T14:07:25;13.70;88.60
40023;DHT22;25713;-35.352;149.036;2022-10-29T14:10:01;13.70;87.30
40023;DHT22;25713;-35.352;149.036;2022-10-29T14:12:34;13.60;87.00
40023;DHT22;25713;-35.352;149.036;2022-10-29T14:15:07;13.60;87.30
40023;DHT22;25713;-35.352;149.036;2022-10-29T14:17:37;13.60;87.80
40023;DHT22;25713;-35.352;149.036;2022-10-29T14:20:22;13.60;87.70
40023;DHT22;25713;-35.352;149.036;2022-10-29T14:22:52;13.60;86.20
40023;DHT22;25713;-35.352;149.036;2022-10-29T14:25:33;13.60;86.70
40023;DHT22;25713;-35.352;149.036;2022-10-29T14:28:13;13.60;90.80
40023;DHT22;25713;-35.352;149.036;2022-10-29T14:30:46;13.60;90.20
40023;DHT22;25713;-35.352;149.036;2022-10-29T14:33:21;13.60;89.90
40023;DHT22;25713;-35.352;149.036;2022-10-29T14:35:52;13.60;90.40
40023;DHT22;25713;-35.352;149.036;2022-10-29T14:38:22;13.60;90.10
40023;DHT22;25713;-35.352;149.036;2022-10-29T14:40:54;13.60;91.10
40023;DHT22;25713;-35.352;149.036;2022-10-29T14:43:25;13.60;90.40
40023;DHT22;25713;-35.352;149.036;2022-10-29T14:46:19;13.60;91.30
40023;DHT22;25713;-35.352;149.036;2022-10-29T14:48:56;13.60;93.20
40023;DHT22;25713;-35.352;149.036;2022-10-29T14:51:27;13.60;91.00
40023;DHT22;25713;-35.352;149.036;2022-10-29T16:04:32;12.50;91.40
40023;DHT22;25713;-35.352;149.036;2022-10-29T16:07:02;12.30;91.60
40023;DHT22;25713;-35.352;149.036;2022-10-29T16:09:31;12.30;92.30
40023;DHT22;25713;-35.352;149.036;2022-10-29T16:12:01;12.30;91.80
40023;DHT22;25713;-35.352;149.036;2022-10-29T16:14:30;12.30;91.70
40023;DHT22;25713;-35.352;149.036;2022-10-29T16:16:59;12.30;92.30
40023;DHT22;25713;-35.352;149.036;2022-10-29T16:19:31;12.20;91.80
40023;DHT22;25713;-35.352;149.036;2022-10-29T16:22:00;12.30;91.20
40023;DHT22;25713;-35.352;149.036;2022-10-29T16:24:30;12.20;91.20
40023;DHT22;25713;-35.352;149.036;2022-10-29T16:26:59;12.30;92.60
40023;DHT22;25713;-35.352;149.036;2022-10-29T16:29:29;12.20;91.70
40023;DHT22;25713;-35.352;149.036;2022-10-29T16:31:58;12.30;92.60
40023;DHT22;25713;-35.352;149.036;2022-10-29T16:34:27;12.30;92.40
40023;DHT22;25713;-35.352;149.036;2022-10-29T16:36:58;12.40;91.90
40023;DHT22;25713;-35.352;149.036;2022-10-29T16:39:28;12.50;92.50
40023;DHT22;25713;-35.352;149.036;2022-10-29T16:41:57;12.40;92.10
40023;DHT22;25713;-35.352;149.036;2022-10-29T16:44:27;12.40;93.00
40023;DHT22;25713;-35.352;149.036;2022-10-29T16:46:56;12.50;92.70
40023;DHT22;25713;-35.352;149.036;2022-10-29T16:49:25;12.50;92.40
40023;DHT22;25713;-35.352;149.036;2022-10-29T16:51:56;12.60;92.60
40023;DHT22;25713;-35.352;149.036;2022-10-29T16:54:26;12.60;92.70
40023;DHT22;25713;-35.352;149.036;2022-10-29T16:56:55;12.60;92.60